Home > Products > Valid Products > TAF

000
FTUS44 KCRP 010500
TAFALI
TAF
KALI 010540Z 0106/0206 17005KT P6SM SCT015 BKN100
      TEMPO 0109/0113 BKN015 OVC100
     FM011500 17005KT P6SM VCSH BKN030 OVC100 PROB30 0115/0118 3SM
      TSRA OVC025CB
     FM012000 12012KT P6SM VCTS BKN035CB BKN100
     FM020200 11008KT P6SM SCT060 BKN100=



000
FTUS44 KCRP 010500
TAFLRD
TAF
KLRD 010540Z 0106/0206 17005KT P6SM FEW030 BKN200
      TEMPO 0110/0113 BKN025 OVC100
     FM011500 VRB03KT P6SM VCSH BKN040 OVC100 PROB30 0115/0118 3SM
      TSRA OVC035CB
     FM011800 11011KT P6SM VCTS BKN050CB=



000
FTUS44 KCRP 010500
TAFVCT
TAF
KVCT 010540Z 0106/0206 17008KT P6SM BKN050 OVC250
     FM010900 VRB03KT P6SM VCSH OVC020
     FM011500 01005KT P6SM VCTS OVC030CB
     FM020300 04005KT P6SM BKN050=



000
FTUS44 KCRP 010500
TAFCRP
TAF
KCRP 010540Z 0106/0206 17015KT P6SM SCT020 BKN100
      TEMPO 0110/0113 BKN015 OVC100
     FM011500 16005KT P6SM VCSH BKN030 OVC100 PROB30 0115/0118 3SM
      TSRA OVC025CB
     FM012000 14010KT P6SM VCTS SCT040CB BKN090
     FM020200 12007KT P6SM FEW050=



000
FTUS44 KCRP 010300 AAA
TAFVCT
TAF AMD
KVCT 010329Z 0103/0124 17008KT P6SM BKN050 OVC250
     FM010900 VRB03KT P6SM VCSH OVC020 PROB30 0114/0118 3SM TSRA
      OVC015CB=



000
FTUS44 KCRP 312300
TAFCRP
TAF
KCRP 312325Z 0100/0124 13015G20KT P6SM BKN050
     FM010300 17008KT P6SM SCT020 BKN100
      TEMPO 0110/0113 BKN015 OVC100
     FM011500 VRB03KT P6SM VCSH BKN030 OVC100 PROB30 0115/0118 3SM
      TSRA OVC025CB
     FM012000 14010KT P6SM VCTS SCT040CB BKN090=



000
FTUS44 KCRP 312300
TAFALI
TAF
KALI 312325Z 0100/0124 14015G20KT P6SM BKN050
     FM010200 15012KT P6SM VCTS SCT035CB BKN150
     FM010400 17005KT P6SM SCT020 BKN100
      TEMPO 0109/0113 BKN015 OVC100
     FM011500 VRB05KT P6SM VCSH BKN030 OVC100 PROB30 0115/0118 3SM
      TSRA OVC025CB
     FM012200 12010KT P6SM VCTS BKN030CB=



000
FTUS44 KCRP 312300
TAFLRD
TAF
KLRD 312325Z 0100/0124 10005KT P6SM SCT050 BKN150
     FM010100 15012KT P6SM VCTS SCT060CB BKN150
     FM010300 17005KT P6SM SCT030 BKN200
      TEMPO 0110/0113 BKN025 OVC100
     FM011500 VRB03KT P6SM VCSH BKN040 OVC100 PROB30 0115/0118 3SM
      TSRA OVC035CB=



000
FTUS44 KCRP 312300
TAFVCT
TAF
KVCT 312325Z 0100/0124 15014G18KT P6SM VCTS BKN050CB OVC150
     FM010300 17004KT P6SM BKN020 OVC100
     FM010900 VRB03KT P6SM VCSH OVC020 PROB30 0114/0118 3SM TSRA
      OVC015CB=



000
FTUS44 KCRP 311700
TAFALI
TAF
KALI 311740Z 3118/0118 18012G18KT P6SM SCT040
     FM312200 14015G20KT P6SM BKN050
     FM010100 15012KT P6SM VCTS SCT035CB BKN150
     FM010300 17005KT P6SM SCT020 BKN100
      TEMPO 0109/0113 BKN015 OVC100
     FM011500 VRB03KT P6SM VCSH BKN030 OVC100 PROB30 0115/0118 3SM
      TSRA OVC025CB=



000
FTUS44 KCRP 311700
TAFVCT
TAF
KVCT 311740Z 3118/0118 18012G18KT P6SM BKN040
     FM312200 14014G18KT P6SM VCTS BKN050CB OVC150
     FM010300 17004KT P6SM BKN020 OVC100
     FM010900 VRB03KT P6SM VCSH OVC020 PROB30 0114/0118 3SM TSRA
      OVC015CB=



000
FTUS44 KCRP 311700
TAFLRD
TAF
KLRD 311740Z 3118/0118 10005KT P6SM SCT050 BKN150
     FM010100 15012KT P6SM VCTS SCT060CB BKN150
     FM010300 17005KT P6SM SCT030 BKN200
      TEMPO 0110/0113 BKN025 OVC100
     FM011500 VRB03KT P6SM VCSH BKN040 OVC100 PROB30 0115/0118 3SM
      TSRA OVC035CB=



000
FTUS44 KCRP 311700
TAFCRP
TAF
KCRP 311740Z 3118/0118 16012G18KT P6SM SCT030 BKN250
     FM312000 13015G20KT P6SM BKN050
     FM010300 17008KT P6SM SCT020 BKN100
      TEMPO 0110/0113 BKN015 OVC100
     FM011500 VRB03KT P6SM VCSH BKN030 OVC100 PROB30 0115/0118 3SM
      TSRA OVC025CB=



000
FTUS44 KCRP 311100
TAFALI
TAF
KALI 311127Z 3112/0112 17009KT P6SM SCT020
      TEMPO 3112/3116 BKN020
     FM311600 16012KT P6SM SCT035
     FM312100 14016G22KT P6SM FEW050
     FM010200 18006KT P6SM BKN120
      TEMPO 0110/0112 BKN015=



000
FTUS44 KCRP 311100
TAFCRP
TAF
KCRP 311127Z 3112/0112 16010KT P6SM SCT020 SCT250
      TEMPO 3112/3115 BKN020
     FM311500 16014G19KT P6SM SCT030
     FM311900 14018G23KT P6SM FEW040 SCT250
     FM010400 18005KT P6SM FEW020 BKN120=



000
FTUS44 KCRP 311100
TAFLRD
TAF
KLRD 311127Z 3112/0112 15012KT P6SM FEW025
      TEMPO 3112/3114 BKN015
     FM010100 13015KT P6SM SCT120=



000
FTUS44 KCRP 311100
TAFVCT
TAF
KVCT 311127Z 3112/0112 VRB05KT P6SM SCT025
      TEMPO 3112/3116 BKN018
     FM311700 17013KT P6SM SCT035 SCT250
     FM010300 VRB06KT P6SM VCTS SCT030CB BKN120 PROB30 0103/0109 3SM
      TS BR BKN030CB=



000
FTUS44 KCRP 310500
TAFCRP
TAF
KCRP 310535Z 3106/0106 17009KT P6SM FEW020
      TEMPO 3107/3111 BKN018
     FM311100 17005KT P6SM SCT015
      TEMPO 3111/3115 BKN015
     FM311500 16014G19KT P6SM SCT025
     FM311900 14018G23KT P6SM FEW040 SCT250
     FM010400 16012KT P6SM FEW020 BKN250=



000
FTUS44 KCRP 310500
TAFLRD
TAF
KLRD 310535Z 3106/0106 15013KT P6SM FEW015
      TEMPO 3110/3114 BKN015
     FM311800 17008KT P6SM SCT150
     FM010100 13015KT P6SM SCT250=



000
FTUS44 KCRP 310500
TAFVCT
TAF
KVCT 310535Z 3106/0106 17006KT P6SM SCT250
     FM310900 VRB03KT P6SM SCT012
      TEMPO 3111/3115 6SM BR BKN012
     FM311500 20008KT P6SM SCT025
      TEMPO 3115/3117 BKN025
     FM311700 17013KT P6SM SCT035 SCT250=



000
FTUS44 KCRP 310500
TAFALI
TAF
KALI 310535Z 3106/0106 17009KT P6SM BKN020
      TEMPO 3106/3110 SCT019
     FM311000 17004KT P6SM BKN016
      TEMPO 3110/3114 SCT016
     FM311400 16012KT P6SM SCT030
      TEMPO 3114/3116 BKN025
     FM312100 14016G22KT P6SM FEW050
     FM010200 14012KT P6SM BKN250=



000
FTUS44 KCRP 302300
TAFVCT
TAF
KVCT 302321Z 3100/3124 15012G22KT P6SM FEW050 SCT250
     FM310200 15010KT P6SM SCT020 SCT250
     FM310700 17004KT P6SM BKN012 OVC150
      TEMPO 3110/3113 5SM BR
     FM311500 16012KT P6SM SCT025 BKN150
      TEMPO 3115/3117 BKN025=



000
FTUS44 KCRP 302300
TAFCRP
TAF
KCRP 302321Z 3100/3124 12015G25KT P6SM FEW050 SCT250
     FM310300 15014KT P6SM SCT020
     FM310900 17005KT P6SM BKN015 OVC150
     FM311500 16010KT P6SM SCT025 BKN150=



000
FTUS44 KCRP 302300
TAFLRD
TAF
KLRD 302321Z 3100/3124 15015G20KT P6SM SCT150
     FM310400 16010KT P6SM BKN150
      TEMPO 3110/3112 BKN015 OVC150
     FM311500 17008KT P6SM BKN150=



000
FTUS44 KCRP 302300
TAFALI
TAF
KALI 302321Z 3100/3124 13015G25KT P6SM FEW060 SCT250
     FM310200 15012KT P6SM SCT020
     FM310800 17004KT P6SM BKN012 OVC150
      TEMPO 3110/3113 5SM BR
     FM311500 16012KT P6SM SCT030 BKN150=



000
FTUS44 KCRP 301700
TAFVCT
TAF
KVCT 301728Z 3018/3118 15010G20KT P6SM SCT040
     FM302200 13012G22KT P6SM VCTS SCT050CB BKN250
     FM310200 15010KT P6SM SCT020 BKN250
     FM310700 17004KT P6SM BKN012 OVC150
      TEMPO 3110/3113 5SM BR
     FM311500 16012KT P6SM SCT025 BKN150
      TEMPO 3115/3117 BKN025=



000
FTUS44 KCRP 301700
TAFCRP
TAF
KCRP 301728Z 3018/3118 16012G18KT P6SM FEW040
     FM302000 12015G25KT P6SM FEW050 SCT250
     FM310300 15014KT P6SM SCT020
     FM310900 17005KT P6SM BKN015 OVC150
     FM311500 16010KT P6SM SCT025 BKN150=



000
FTUS44 KCRP 301700
TAFALI
TAF
KALI 301728Z 3018/3118 16012G18KT P6SM SCT045
     FM302200 13015G25KT P6SM FEW060 SCT250
     FM310200 15012KT P6SM SCT020
     FM310800 17004KT P6SM BKN012 OVC150
      TEMPO 3110/3113 5SM BR
     FM311500 16012KT P6SM SCT030 BKN150=



000
FTUS44 KCRP 301700
TAFLRD
TAF
KLRD 301728Z 3018/3118 17008KT P6SM SKC
     FM302300 15015G20KT P6SM SCT150
     FM310400 16010KT P6SM BKN150
      TEMPO 3110/3112 BKN015 OVC150
     FM311500 17008KT P6SM BKN150=



000
FTUS44 KCRP 301500 AAA
TAFVCT
TAF AMD
KVCT 301535Z 3016/3112 18008KT P6SM SCT025
     FM301800 18011KT P6SM VCTS SCT035CB
     FM302200 16014G22KT P6SM SCT050 BKN250
     FM310100 15010KT P6SM FEW015 SCT250
      TEMPO 3110/3112 5SM BR SCT015=



000
FTUS44 KCRP 301300 AAB
TAFALI
TAF AMD
KALI 301349Z 3014/3112 16005KT P6SM BKN005
     FM301430 17007G15KT P6SM SCT015
     FM302000 14016G22KT P6SM FEW060 SCT250
     FM310200 15012KT P6SM FEW018
     FM310900 17003KT P6SM BKN015=



000
FTUS44 KCRP 301200 AAA
TAFALI
TAF AMD
KALI 301237Z 3013/3112 15003KT 1/4SM FG BKN009 OVC016
     FM301330 16005KT 2SM BR SCT015 BKN025
     FM301400 18009KT P6SM SCT035 SCT250
     FM302000 14016G22KT P6SM FEW060 SCT250
     FM310200 15012KT P6SM FEW018
     FM310900 17003KT P6SM BKN015=



000
FTUS44 KCRP 301100 CCA
TAFALI
TAF COR
KALI 301141Z 3012/3112 VRB05KT 5SM BR SCT018 SCT250
      TEMPO 3012/3013 2SM BR BKN016
     FM301400 18009KT P6SM SCT035 SCT250
     FM302000 14016G22KT P6SM FEW060 SCT250
     FM310200 15012KT P6SM FEW018
     FM310900 17003KT P6SM BKN015=



000
FTUS44 KCRP 301100
TAFVCT
TAF
KVCT 301128Z 3012/3112 VRB06KT P6SM SCT025 SCT250
      TEMPO 3012/3013 5SM BR
     FM302100 16015G22KT P6SM FEW050 SCT250
     FM310100 15010KT P6SM FEW015 SCT250
      TEMPO 3110/3112 5SM BR SCT015=



000
FTUS44 KCRP 301100
TAFLRD
TAF
KLRD 301128Z 3012/3112 15009KT P6SM FEW040
     FM302300 15016KT P6SM FEW080 SCT250
      TEMPO 3110/3112 BKN015=



000
FTUS44 KCRP 301100
TAFCRP
TAF
KCRP 301128Z 3012/3112 VRB06KT P6SM SCT025 SCT250
      TEMPO 3012/3013 BKN025
     FM301900 14017G25KT P6SM FEW050 SCT250
     FM310200 15012KT P6SM FEW015 SCT250
     FM311000 17006KT P6SM BKN015=



000
FTUS44 KCRP 301100
TAFALI
TAF
KALI 301128Z 3012/3112 VRB05KT 5SM BR FEW012 SCT250
      TEMPO 3012/3013 4SM BR BKN018
     FM301400 18009KT P6SM SCT035 SCT250
     FM302000 14016G22KT P6SM FEW060 SCT250
     FM310200 15012KT P6SM FEW018
     FM310900 17003KT P6SM BKN015=



000
FTUS44 KCRP 300700 AAA
TAFALI
TAF AMD
KALI 300722Z 3007/3106 15005KT P6SM FEW014 FEW250
      TEMPO 3007/3009 BKN014
     FM300900 VRB05KT 4SM BR FEW012 SCT250
      TEMPO 3009/3013 2SM BR SCT012
     FM301400 17009KT P6SM FEW040 SCT250
     FM302000 14016G22KT P6SM FEW060 SCT250
     FM310200 15012KT P6SM SKC=



000
FTUS44 KCRP 300500
TAFLRD
TAF
KLRD 300529Z 3006/3106 15009KT P6SM FEW040
     FM302300 15016KT P6SM FEW080 SCT250=



000
FTUS44 KCRP 300500
TAFCRP
TAF
KCRP 300529Z 3006/3106 17004KT P6SM FEW012 SCT250
      TEMPO 3011/3013 5SM BR
     FM301900 14017G25KT P6SM FEW050 SCT250
     FM310200 15012KT P6SM SCT250=



000
FTUS44 KCRP 300500
TAFALI
TAF
KALI 300529Z 3006/3106 17005KT P6SM FEW250
     FM300900 VRB05KT 4SM BR FEW012 SCT250
      TEMPO 3009/3013 2SM BR SCT012
     FM301400 17009KT P6SM FEW040 SCT250
     FM302000 14016G22KT P6SM FEW060 SCT250
     FM310200 15012KT P6SM SKC=



000
FTUS44 KCRP 300500
TAFVCT
TAF
KVCT 300529Z 3006/3106 18003KT P6SM BKN250
     FM301000 VRB03KT 5SM BR FEW012 SCT250
      TEMPO 3011/3013 3SM BR
     FM301400 VRB06KT P6SM SCT025
     FM302100 16015G22KT P6SM FEW050 SCT250
     FM310100 15010KT P6SM SCT250=



000
FTUS44 KCRP 292300
TAFCRP
TAF
KCRP 292332Z 3000/3024 12012G20KT P6SM FEW040
     FM300200 15006KT P6SM SCT250
      TEMPO 3010/3013 5SM BR SCT005
     FM301600 16015KT P6SM SCT035
     FM301800 14015G25KT P6SM SCT045=



000
FTUS44 KCRP 292300
TAFALI
TAF
KALI 292332Z 3000/3024 12012G20KT P6SM SCT045
     FM300200 17005KT P6SM SCT250
     FM300800 17005KT 5SM BR SCT004
      TEMPO 3009/3012 2SM BR BKN004
     FM301600 16012KT P6SM SCT035
     FM301900 15015G22KT P6SM SCT045=



000
FTUS44 KCRP 292300
TAFLRD
TAF
KLRD 292332Z 3000/3024 14015KT P6SM FEW250
     FM300800 15008KT P6SM FEW250
     FM301800 15012KT P6SM FEW080=



000
FTUS44 KCRP 292300
TAFVCT
TAF
KVCT 292332Z 3000/3024 15012KT P6SM VCTS SCT050CB
      TEMPO 3000/3003 03015G25KT
     FM300300 17005KT P6SM SCT250
     FM301000 VRB03KT 5SM BR SCT008
      TEMPO 3011/3013 2SM BR BKN008
     FM301400 19008KT P6SM SCT025
     FM302000 16015G22KT P6SM SCT045=



000
FTUS44 KCRP 291700 AAA
TAFVCT
TAF AMD
KVCT 291753Z 2918/3018 VRB03KT P6SM SCT040
     FM292100 12008G15KT P6SM VCTS SCT050CB
     FM300300 17005KT P6SM SCT250
     FM301000 VRB03KT 5SM BR SCT010
      TEMPO 3011/3013 2SM BR
     FM301400 VRB03KT P6SM SKC=



000
FTUS44 KCRP 291700
TAFVCT
TAF
KVCT 291729Z 2918/3018 VRB03KT P6SM SKC
     FM292100 14014G20KT P6SM SCT045
     FM300300 17005KT P6SM SKC
     FM301000 VRB03KT 5SM BR SCT250
      TEMPO 3011/3013 2SM BR
     FM301400 VRB03KT P6SM SKC=



000
FTUS44 KCRP 291700
TAFLRD
TAF
KLRD 291729Z 2918/3018 16008KT P6SM SKC
     FM300200 14015G20KT P6SM SKC
     FM300800 17006KT P6SM SKC=



000
FTUS44 KCRP 291700
TAFALI
TAF
KALI 291729Z 2918/3018 17008G15KT P6SM SCT030
     FM292100 14014G20KT P6SM SCT045
     FM300300 17005KT P6SM SKC
      TEMPO 3010/3012 5SM BR SCT005
     FM301600 16012KT P6SM SCT035=



000
FTUS44 KCRP 291700
TAFCRP
TAF
KCRP 291729Z 2918/3018 19008KT P6SM SCT030
     FM292000 12015G20KT P6SM FEW040
     FM300300 17006KT P6SM SKC
      TEMPO 3011/3012 6SM BR SCT005
     FM301600 16014KT P6SM SCT030=



000
FTUS44 KCRP 291400 AAB
TAFALI
TAF AMD
KALI 291402Z 2914/3012 VRB04KT P6SM FEW003 BKN008
     FM291430 VRB05KT P6SM SCT015
     FM292000 14014G21KT P6SM FEW045
     FM300200 17006KT P6SM SKC
      TEMPO 3011/3012 5SM BR SCT015=



000
FTUS44 KCRP 291300 AAA
TAFALI
TAF AMD
KALI 291323Z 2913/3012 VRB03KT 1/4SM FG VV002
     FM291400 VRB04KT 3SM BR FEW010 SCT025
     FM291430 VRB06KT P6SM SCT025
     FM292000 14014G21KT P6SM FEW045
     FM300200 17006KT P6SM SKC
      TEMPO 3011/3012 5SM BR SCT015=



000
FTUS44 KCRP 291100 CCA
TAFVCT
TAF COR
KVCT 291139Z 2912/3012 VRB03KT 5SM BR FEW012 SCT250
      TEMPO 2912/2913 2SM BR
     FM291400 VRB06KT P6SM SCT040 SCT250
     FM301000 VRB02KT 5SM BR SCT250=



000
FTUS44 KCRP 291100
TAFLRD
TAF
KLRD 291130Z 2912/3012 VRB06KT P6SM FEW050
     FM300200 14015KT P6SM SKC
     FM300800 14006KT P6SM SKC=



000
FTUS44 KCRP 291100
TAFALI
TAF
KALI 291130Z 2912/3012 VRB03KT 3SM BR SCT015
      TEMPO 2912/2913 1/4SM FG VV009
     FM291400 VRB06KT P6SM SCT025
     FM292000 14014G21KT P6SM FEW045
     FM300200 17006KT P6SM SKC
      TEMPO 3011/3012 5SM BR SCT015=



000
FTUS44 KCRP 291100
TAFCRP
TAF
KCRP 291130Z 2912/3012 VRB03KT 5SM BR BCFG FEW012 SCT250
      TEMPO 2912/2913 3SM BR BCFG
     FM291300 VRB06KT P6SM SCT025 SCT250
     FM291800 14015G22KT P6SM FEW045
     FM300200 VRB06KT P6SM SKC=



000
FTUS44 KCRP 291100
TAFVCT
TAF
KVCT 291130Z 2912/3012 VRB03KT 5SM BR FEW012 SCT250
      TEMPO 2912/2914 3SM BR
     FM291400 VRB06KT P6SM SCT040 SCT250
     FM301000 VRB02KT 5SM BR SCT250=



000
FTUS44 KCRP 291100 AAA
TAFCRP
TAF AMD
KCRP 291117Z 2911/3006 VRB04KT P6SM FEW015 SCT250
      TEMPO 2911/2913 2SM BR BCFG
     FM291400 20006KT P6SM SCT025
     FM291800 14015G22KT P6SM FEW045
     FM300200 17009KT P6SM SKC=



000
FTUS44 KCRP 290900 AAB
TAFALI
TAF AMD
KALI 290928Z 2909/3006 VRB03KT 3SM BR FEW250
      TEMPO 2909/2913 1/4SM FG VV012
     FM291400 19006KT P6SM SCT025
     FM292000 14013G20KT P6SM FEW045
     FM300200 15008KT P6SM SKC=



000
FTUS44 KCRP 290900 AAA
TAFALI
TAF AMD
KALI 290909Z 2909/3006 VRB03KT 3SM BR FEW250
      TEMPO 2909/2913 3/4SM BR
     FM291400 19006KT P6SM SCT025
     FM292000 14013G20KT P6SM FEW045
     FM300200 15008KT P6SM SKC=



    US Dept of Commerce
    National Oceanic and Atmospheric Administration
    National Weather Service
    1325 East West Highway
    Silver Spring, MD 20910
    Page Author: NWS Internet Services Team
Disclaimer
Information Quality
Credits
Glossary
Privacy Policy
Freedom of Information Act (FOIA)
About Us
Career Opportunities